sensor_id;sensor_type;location;lat;lon;timestamp;pressure;altitude;pressure_sealevel;temperature;humidity
50977;BME280;36992;48.200;12.418;2022-09-14T00:00:31;96006.50;;;22.09;51.09
50977;BME280;36992;48.200;12.418;2022-09-14T00:02:57;96016.69;;;22.12;51.42
50977;BME280;36992;48.200;12.418;2022-09-14T00:05:25;96020.59;;;22.15;51.33
50977;BME280;36992;48.200;12.418;2022-09-14T00:07:52;96026.91;;;22.15;51.15
50977;BME280;36992;48.200;12.418;2022-09-14T00:10:18;96028.47;;;22.16;51.32
50977;BME280;36992;48.200;12.418;2022-09-14T00:12:44;96026.09;;;22.18;51.34
50977;BME280;36992;48.200;12.418;2022-09-14T00:15:11;96029.25;;;22.20;51.39
50977;BME280;36992;48.200;12.418;2022-09-14T00:17:37;96021.00;;;22.20;51.51
50977;BME280;36992;48.200;12.418;2022-09-14T00:20:05;96024.19;;;22.22;51.32
50977;BME280;36992;48.200;12.418;2022-09-14T00:22:33;96024.56;;;22.24;51.48
50977;BME280;36992;48.200;12.418;2022-09-14T00:24:59;96012.03;;;22.23;51.89
50977;BME280;36992;48.200;12.418;2022-09-14T00:27:26;96012.41;;;22.22;51.97
50977;BME280;36992;48.200;12.418;2022-09-14T00:29:52;96009.28;;;22.20;52.16
50977;BME280;36992;48.200;12.418;2022-09-14T00:32:19;96007.28;;;22.17;52.29
50977;BME280;36992;48.200;12.418;2022-09-14T00:34:45;96012.75;;;22.13;52.21
50977;BME280;36992;48.200;12.418;2022-09-14T00:37:12;96010.81;;;22.10;52.11
50977;BME280;36992;48.200;12.418;2022-09-14T00:39:40;96001.38;;;22.07;51.83
50977;BME280;36992;48.200;12.418;2022-09-14T00:42:09;96003.69;;;22.02;51.99
50977;BME280;36992;48.200;12.418;2022-09-14T00:45:04;95999.03;;;22.09;51.24
50977;BME280;36992;48.200;12.418;2022-09-14T00:47:33;95994.69;;;22.01;52.06
50977;BME280;36992;48.200;12.418;2022-09-14T00:50:02;96002.94;;;22.01;52.49
50977;BME280;36992;48.200;12.418;2022-09-14T00:52:33;96010.78;;;22.03;52.25
50977;BME280;36992;48.200;12.418;2022-09-14T00:55:04;96008.03;;;22.03;51.90
50977;BME280;36992;48.200;12.418;2022-09-14T00:57:35;96004.88;;;22.01;52.16
50977;BME280;36992;48.200;12.418;2022-09-14T01:00:04;95998.19;;;21.98;52.39
50977;BME280;36992;48.200;12.418;2022-09-14T01:02:32;95983.72;;;21.98;52.64
50977;BME280;36992;48.200;12.418;2022-09-14T01:04:59;95983.31;;;21.95;52.67
50977;BME280;36992;48.200;12.418;2022-09-14T01:07:37;95977.84;;;21.99;51.90
50977;BME280;36992;48.200;12.418;2022-09-14T01:10:17;95982.16;;;22.00;51.85
50977;BME280;36992;48.200;12.418;2022-09-14T01:13:03;95975.88;;;22.00;51.53
50977;BME280;36992;48.200;12.418;2022-09-14T01:15:36;95979.00;;;21.98;51.84
50977;BME280;36992;48.200;12.418;2022-09-14T01:18:12;95979.81;;;21.99;51.92
50977;BME280;36992;48.200;12.418;2022-09-14T01:20:45;95974.31;;;21.99;52.12
50977;BME280;36992;48.200;12.418;2022-09-14T01:23:28;95975.88;;;22.00;51.69
50977;BME280;36992;48.200;12.418;2022-09-14T01:29:08;95977.06;;;21.99;51.37
50977;BME280;36992;48.200;12.418;2022-09-14T01:31:44;95968.84;;;21.99;51.70
50977;BME280;36992;48.200;12.418;2022-09-14T01:34:15;95972.75;;;21.98;51.77
50977;BME280;36992;48.200;12.418;2022-09-14T01:36:47;95966.47;;;21.97;51.93
50977;BME280;36992;48.200;12.418;2022-09-14T01:39:17;95963.34;;;21.95;51.26
50977;BME280;36992;48.200;12.418;2022-09-14T01:41:46;95970.00;;;21.94;52.51
50977;BME280;36992;48.200;12.418;2022-09-14T01:44:19;95973.94;;;21.96;52.08
50977;BME280;36992;48.200;12.418;2022-09-14T01:46:50;95970.00;;;21.94;52.16
50977;BME280;36992;48.200;12.418;2022-09-14T01:49:21;95970.38;;;21.92;52.48
50977;BME280;36992;48.200;12.418;2022-09-14T01:51:57;95970.38;;;21.92;51.90
50977;BME280;36992;48.200;12.418;2022-09-14T01:54:29;95972.72;;;21.90;52.17
50977;BME280;36992;48.200;12.418;2022-09-14T01:57:11;95968.81;;;21.91;51.99
50977;BME280;36992;48.200;12.418;2022-09-14T01:59:43;95961.75;;;21.87;52.36
50977;BME280;36992;48.200;12.418;2022-09-14T02:02:13;95956.22;;;21.83;52.75
50977;BME280;36992;48.200;12.418;2022-09-14T02:04:45;95957.81;;;21.84;52.50
50977;BME280;36992;48.200;12.418;2022-09-14T02:07:14;95950.72;;;21.79;52.85
50977;BME280;36992;48.200;12.418;2022-09-14T02:09:42;95937.44;;;21.78;52.15
50977;BME280;36992;48.200;12.418;2022-09-14T02:12:08;95942.91;;;21.78;52.12
50977;BME280;36992;48.200;12.418;2022-09-14T02:14:35;95927.63;;;21.77;52.81
50977;BME280;36992;48.200;12.418;2022-09-14T02:17:03;95940.94;;;21.78;52.44
50977;BME280;36992;48.200;12.418;2022-09-14T02:19:40;95939.38;;;21.81;52.49
50977;BME280;36992;48.200;12.418;2022-09-14T02:22:09;95939.38;;;21.74;53.00
50977;BME280;36992;48.200;12.418;2022-09-14T02:24:36;95928.78;;;21.72;52.25
50977;BME280;36992;48.200;12.418;2022-09-14T02:27:03;95931.91;;;21.70;52.65
50977;BME280;36992;48.200;12.418;2022-09-14T02:29:30;95932.66;;;21.67;52.68
50977;BME280;36992;48.200;12.418;2022-09-14T02:32:06;95926.41;;;21.70;52.50
50977;BME280;36992;48.200;12.418;2022-09-14T02:34:43;95925.66;;;21.70;52.02
50977;BME280;36992;48.200;12.418;2022-09-14T02:37:17;95924.06;;;21.69;52.40
50977;BME280;36992;48.200;12.418;2022-09-14T02:39:51;95926.41;;;21.70;52.15
50977;BME280;36992;48.200;12.418;2022-09-14T02:42:25;95920.94;;;21.70;52.51
50977;BME280;36992;48.200;12.418;2022-09-14T02:45:00;95912.72;;;21.70;52.61
50977;BME280;36992;48.200;12.418;2022-09-14T02:47:38;95911.56;;;21.72;52.60
50977;BME280;36992;48.200;12.418;2022-09-14T02:50:14;95909.56;;;21.68;52.46
50977;BME280;36992;48.200;12.418;2022-09-14T02:52:50;95903.69;;;21.66;51.72
50977;BME280;36992;48.200;12.418;2022-09-14T02:55:20;95906.41;;;21.66;52.73
50977;BME280;36992;48.200;12.418;2022-09-14T02:58:02;95903.72;;;21.70;52.41
50977;BME280;36992;48.200;12.418;2022-09-14T03:00:30;95909.91;;;21.63;53.07
50977;BME280;36992;48.200;12.418;2022-09-14T03:02:58;95906.78;;;21.61;52.09
50977;BME280;36992;48.200;12.418;2022-09-14T03:05:25;95906.38;;;21.59;52.40
50977;BME280;36992;48.200;12.418;2022-09-14T03:07:51;95900.50;;;21.57;53.01
50977;BME280;36992;48.200;12.418;2022-09-14T03:10:18;95900.50;;;21.57;53.25
50977;BME280;36992;48.200;12.418;2022-09-14T03:12:44;95904.41;;;21.56;53.16
50977;BME280;36992;48.200;12.418;2022-09-14T03:15:11;95891.88;;;21.55;53.63
50977;BME280;36992;48.200;12.418;2022-09-14T03:17:38;95891.09;;;21.54;53.07
50977;BME280;36992;48.200;12.418;2022-09-14T03:20:06;95894.25;;;21.56;52.80
50977;BME280;36992;48.200;12.418;2022-09-14T03:22:33;95892.63;;;21.52;53.24
50977;BME280;36992;48.200;12.418;2022-09-14T03:24:59;95897.34;;;21.51;52.51
50977;BME280;36992;48.200;12.418;2022-09-14T03:27:26;95889.50;;;21.50;52.79
50977;BME280;36992;48.200;12.418;2022-09-14T03:29:52;95888.72;;;21.49;53.28
50977;BME280;36992;48.200;12.418;2022-09-14T03:32:19;95885.19;;;21.49;53.52
50977;BME280;36992;48.200;12.418;2022-09-14T03:34:45;95880.91;;;21.48;53.23
50977;BME280;36992;48.200;12.418;2022-09-14T03:37:13;95876.97;;;21.49;53.20
50977;BME280;36992;48.200;12.418;2022-09-14T03:39:39;95872.25;;;21.46;52.88
50977;BME280;36992;48.200;12.418;2022-09-14T03:42:06;95874.22;;;21.45;53.13
50977;BME280;36992;48.200;12.418;2022-09-14T03:44:32;95876.16;;;21.45;53.16
50977;BME280;36992;48.200;12.418;2022-09-14T03:46:59;95869.13;;;21.43;52.92
50977;BME280;36992;48.200;12.418;2022-09-14T03:49:25;95862.06;;;21.42;53.18
50977;BME280;36992;48.200;12.418;2022-09-14T03:51:52;95851.13;;;21.42;53.50
50977;BME280;36992;48.200;12.418;2022-09-14T03:54:20;95852.69;;;21.43;53.18
50977;BME280;36992;48.200;12.418;2022-09-14T03:56:46;95855.03;;;21.41;53.29
50977;BME280;36992;48.200;12.418;2022-09-14T03:59:13;95856.59;;;21.42;53.76
50977;BME280;36992;48.200;12.418;2022-09-14T04:01:39;95853.47;;;21.40;53.63
50977;BME280;36992;48.200;12.418;2022-09-14T04:04:06;95849.13;;;21.39;53.92
50977;BME280;36992;48.200;12.418;2022-09-14T04:06:32;95858.53;;;21.38;53.95
50977;BME280;36992;48.200;12.418;2022-09-14T04:08:59;95854.22;;;21.37;53.01
50977;BME280;36992;48.200;12.418;2022-09-14T04:11:27;95858.13;;;21.36;54.04
50977;BME280;36992;48.200;12.418;2022-09-14T04:13:59;95861.28;;;21.38;53.73
50977;BME280;36992;48.200;12.418;2022-09-14T04:16:27;95863.59;;;21.33;53.68
50977;BME280;36992;48.200;12.418;2022-09-14T04:18:53;95872.19;;;21.31;53.92
50977;BME280;36992;48.200;12.418;2022-09-14T04:21:21;95878.03;;;21.29;53.83
50977;BME280;36992;48.200;12.418;2022-09-14T04:23:51;95872.19;;;21.31;53.59
50977;BME280;36992;48.200;12.418;2022-09-14T04:26:20;95878.44;;;21.28;53.97
50977;BME280;36992;48.200;12.418;2022-09-14T04:28:48;95875.72;;;21.28;53.72
50977;BME280;36992;48.200;12.418;2022-09-14T04:31:14;95871.41;;;21.27;54.05
50977;BME280;36992;48.200;12.418;2022-09-14T04:33:42;95867.06;;;21.26;54.39
50977;BME280;36992;48.200;12.418;2022-09-14T04:36:11;95862.03;;;21.28;54.10
50977;BME280;36992;48.200;12.418;2022-09-14T04:38:39;95866.69;;;21.27;54.13
50977;BME280;36992;48.200;12.418;2022-09-14T04:41:07;95869.06;;;21.29;53.68
50977;BME280;36992;48.200;12.418;2022-09-14T04:43:34;95865.53;;;21.28;54.10
50977;BME280;36992;48.200;12.418;2022-09-14T04:46:04;95866.72;;;21.31;53.68
50977;BME280;36992;48.200;12.418;2022-09-14T04:48:31;95870.63;;;21.30;53.36
50977;BME280;36992;48.200;12.418;2022-09-14T04:51:00;95872.19;;;21.31;53.97
50977;BME280;36992;48.200;12.418;2022-09-14T04:53:27;95868.28;;;21.32;54.18
50977;BME280;36992;48.200;12.418;2022-09-14T04:55:58;95852.66;;;21.36;53.48
50977;BME280;36992;48.200;12.418;2022-09-14T04:58:25;95856.16;;;21.33;53.65
50977;BME280;36992;48.200;12.418;2022-09-14T05:00:52;95867.09;;;21.33;54.38
50977;BME280;36992;48.200;12.418;2022-09-14T05:03:21;95865.56;;;21.36;54.17
50977;BME280;36992;48.200;12.418;2022-09-14T05:05:47;95865.97;;;21.34;53.80
50977;BME280;36992;48.200;12.418;2022-09-14T05:08:14;95871.44;;;21.34;54.08
50977;BME280;36992;48.200;12.418;2022-09-14T05:10:40;95880.81;;;21.33;54.52
50977;BME280;36992;48.200;12.418;2022-09-14T05:13:07;95876.50;;;21.32;53.90
50977;BME280;36992;48.200;12.418;2022-09-14T05:15:33;95872.56;;;21.29;53.19
50977;BME280;36992;48.200;12.418;2022-09-14T05:18:00;95895.66;;;21.28;55.22
50977;BME280;36992;48.200;12.418;2022-09-14T05:20:28;95886.25;;;21.29;55.06
50977;BME280;36992;48.200;12.418;2022-09-14T05:22:55;95893.31;;;21.27;54.50
50977;BME280;36992;48.200;12.418;2022-09-14T05:25:21;95903.47;;;21.26;55.30
50977;BME280;36992;48.200;12.418;2022-09-14T05:27:49;95867.47;;;21.24;54.76
50977;BME280;36992;48.200;12.418;2022-09-14T05:30:15;95893.69;;;21.22;55.38
50977;BME280;36992;48.200;12.418;2022-09-14T05:32:42;95884.28;;;21.19;54.01
50977;BME280;36992;48.200;12.418;2022-09-14T05:35:08;95890.13;;;21.18;55.16
50977;BME280;36992;48.200;12.418;2022-09-14T05:37:36;95886.22;;;21.19;55.06
50977;BME280;36992;48.200;12.418;2022-09-14T05:40:03;95879.16;;;21.18;54.02
50977;BME280;36992;48.200;12.418;2022-09-14T05:42:31;95870.94;;;21.18;54.79
50977;BME280;36992;48.200;12.418;2022-09-14T05:44:57;95865.88;;;21.20;54.90
50977;BME280;36992;48.200;12.418;2022-09-14T05:47:24;95865.50;;;21.21;54.39
50977;BME280;36992;48.200;12.418;2022-09-14T05:49:50;95873.34;;;21.23;55.13
50977;BME280;36992;48.200;12.418;2022-09-14T05:52:17;95879.22;;;21.25;55.10
50977;BME280;36992;48.200;12.418;2022-09-14T05:54:45;95880.03;;;21.29;55.04
50977;BME280;36992;48.200;12.418;2022-09-14T05:57:11;95885.50;;;21.29;54.89
50977;BME280;36992;48.200;12.418;2022-09-14T05:59:38;95898.81;;;21.31;54.88
50977;BME280;36992;48.200;12.418;2022-09-14T06:02:05;95892.16;;;21.32;54.81
50977;BME280;36992;48.200;12.418;2022-09-14T06:04:31;95890.19;;;21.32;55.18
50977;BME280;36992;48.200;12.418;2022-09-14T06:06:59;95884.72;;;21.32;54.24
50977;BME280;36992;48.200;12.418;2022-09-14T06:09:25;95867.50;;;21.32;55.00
50977;BME280;36992;48.200;12.418;2022-09-14T06:11:53;95853.41;;;21.33;54.45
50977;BME280;36992;48.200;12.418;2022-09-14T06:14:19;95845.19;;;21.33;55.08
50977;BME280;36992;48.200;12.418;2022-09-14T06:16:46;95859.69;;;21.34;55.44
50977;BME280;36992;48.200;12.418;2022-09-14T06:19:13;95871.44;;;21.34;55.19
50977;BME280;36992;48.200;12.418;2022-09-14T06:21:40;95865.97;;;21.34;55.60
50977;BME280;36992;48.200;12.418;2022-09-14T06:24:08;95859.31;;;21.35;54.10
50977;BME280;36992;48.200;12.418;2022-09-14T06:26:36;95855.00;;;21.34;55.55
50977;BME280;36992;48.200;12.418;2022-09-14T06:29:04;95858.13;;;21.36;55.00
50977;BME280;36992;48.200;12.418;2022-09-14T06:31:31;95848.34;;;21.35;55.43
50977;BME280;36992;48.200;12.418;2022-09-14T06:33:57;95843.28;;;21.37;55.10
50977;BME280;36992;48.200;12.418;2022-09-14T06:36:25;95853.06;;;21.38;54.90
50977;BME280;36992;48.200;12.418;2022-09-14T06:38:52;95851.88;;;21.39;55.99
50977;BME280;36992;48.200;12.418;2022-09-14T06:41:21;95855.81;;;21.42;55.45
50977;BME280;36992;48.200;12.418;2022-09-14T06:43:48;95864.03;;;21.42;55.54
50977;BME280;36992;48.200;12.418;2022-09-14T06:46:18;95873.84;;;21.47;56.42
50977;BME280;36992;48.200;12.418;2022-09-14T06:48:47;95873.84;;;21.47;55.34
50977;BME280;36992;48.200;12.418;2022-09-14T06:51:17;95874.63;;;21.47;55.28
50977;BME280;36992;48.200;12.418;2022-09-14T06:53:45;95873.44;;;21.45;54.52
50977;BME280;36992;48.200;12.418;2022-09-14T06:56:12;95870.69;;;21.45;55.70
50977;BME280;36992;48.200;12.418;2022-09-14T06:58:39;95863.66;;;21.43;55.86
50977;BME280;36992;48.200;12.418;2022-09-14T07:01:08;95867.56;;;21.42;55.93
50977;BME280;36992;48.200;12.418;2022-09-14T07:03:38;95874.22;;;21.45;56.53
50977;BME280;36992;48.200;12.418;2022-09-14T07:06:07;95867.56;;;21.42;55.19
50977;BME280;36992;48.200;12.418;2022-09-14T07:08:34;95876.53;;;21.39;56.22
50977;BME280;36992;48.200;12.418;2022-09-14T07:11:02;95873.78;;;21.39;56.71
50977;BME280;36992;48.200;12.418;2022-09-14T07:13:29;95867.53;;;21.39;56.62
50977;BME280;36992;48.200;12.418;2022-09-14T07:15:56;95870.66;;;21.37;56.43
50977;BME280;36992;48.200;12.418;2022-09-14T07:18:24;95856.97;;;21.37;55.75
50977;BME280;36992;48.200;12.418;2022-09-14T07:21:02;95867.56;;;21.42;55.34
50977;BME280;36992;48.200;12.418;2022-09-14T07:23:29;95867.91;;;21.37;55.42
50977;BME280;36992;48.200;12.418;2022-09-14T07:26:00;95861.28;;;21.42;56.12
50977;BME280;36992;48.200;12.418;2022-09-14T07:28:27;95862.06;;;21.39;56.62
50977;BME280;36992;48.200;12.418;2022-09-14T07:30:53;95868.31;;;21.39;57.44
50977;BME280;36992;48.200;12.418;2022-09-14T07:33:20;95864.81;;;21.39;57.39
50977;BME280;36992;48.200;12.418;2022-09-14T07:35:46;95851.88;;;21.39;57.00
50977;BME280;36992;48.200;12.418;2022-09-14T07:38:14;95839.38;;;21.42;56.21
50977;BME280;36992;48.200;12.418;2022-09-14T07:40:41;95840.53;;;21.41;57.44
50977;BME280;36992;48.200;12.418;2022-09-14T07:43:08;95837.81;;;21.41;56.25
50977;BME280;36992;48.200;12.418;2022-09-14T07:45:34;95851.13;;;21.42;57.96
50977;BME280;36992;48.200;12.418;2022-09-14T07:48:02;95847.22;;;21.43;56.77
50977;BME280;36992;48.200;12.418;2022-09-14T07:50:28;95840.56;;;21.45;57.67
50977;BME280;36992;48.200;12.418;2022-09-14T07:52:55;95845.66;;;21.46;58.62
50977;BME280;36992;48.200;12.418;2022-09-14T07:55:23;95847.22;;;21.47;57.52
50977;BME280;36992;48.200;12.418;2022-09-14T07:57:50;95846.47;;;21.47;59.42
50977;BME280;36992;48.200;12.418;2022-09-14T08:00:16;95851.94;;;21.47;59.27
50977;BME280;36992;48.200;12.418;2022-09-14T08:02:43;95849.19;;;21.47;58.85
50977;BME280;36992;48.200;12.418;2022-09-14T08:05:09;95850.75;;;21.48;59.04
50977;BME280;36992;48.200;12.418;2022-09-14T08:07:36;95848.78;;;21.48;59.28
50977;BME280;36992;48.200;12.418;2022-09-14T08:10:03;95840.19;;;21.50;58.17
50977;BME280;36992;48.200;12.418;2022-09-14T08:12:31;95849.22;;;21.54;58.60
50977;BME280;36992;48.200;12.418;2022-09-14T08:14:57;95848.03;;;21.55;58.67
50977;BME280;36992;48.200;12.418;2022-09-14T08:17:24;95847.25;;;21.58;59.14
50977;BME280;36992;48.200;12.418;2022-09-14T08:19:50;95848.88;;;21.63;58.98
50977;BME280;36992;48.200;12.418;2022-09-14T08:22:17;95847.31;;;21.65;58.52
50977;BME280;36992;48.200;12.418;2022-09-14T08:24:43;95845.75;;;21.68;59.14
50977;BME280;36992;48.200;12.418;2022-09-14T08:27:10;95859.88;;;21.74;58.83
50977;BME280;36992;48.200;12.418;2022-09-14T08:29:38;95869.28;;;21.76;58.63
50977;BME280;36992;48.200;12.418;2022-09-14T08:32:04;95859.50;;;21.79;59.28
50977;BME280;36992;48.200;12.418;2022-09-14T08:34:31;95867.75;;;21.82;59.02
50977;BME280;36992;48.200;12.418;2022-09-14T08:36:58;95866.19;;;21.85;59.61
50977;BME280;36992;48.200;12.418;2022-09-14T08:39:25;95864.63;;;21.88;59.41
50977;BME280;36992;48.200;12.418;2022-09-14T08:41:53;95865.41;;;21.92;59.56
50977;BME280;36992;48.200;12.418;2022-09-14T08:44:24;95860.72;;;22.00;59.06
50977;BME280;36992;48.200;12.418;2022-09-14T08:46:59;95865.44;;;22.03;58.91
50977;BME280;36992;48.200;12.418;2022-09-14T08:49:35;95865.84;;;22.08;59.80
50977;BME280;36992;48.200;12.418;2022-09-14T08:52:04;95860.75;;;22.10;59.66
50977;BME280;36992;48.200;12.418;2022-09-14T08:54:33;95872.13;;;22.16;59.70
50977;BME280;36992;48.200;12.418;2022-09-14T08:57:06;95873.31;;;22.26;59.25
50977;BME280;36992;48.200;12.418;2022-09-14T08:59:42;95867.84;;;22.37;58.63
50977;BME280;36992;48.200;12.418;2022-09-14T09:02:25;95863.91;;;22.45;58.24
50977;BME280;36992;48.200;12.418;2022-09-14T09:04:57;95873.34;;;22.52;59.38
50977;BME280;36992;48.200;12.418;2022-09-14T09:07:33;95863.56;;;22.58;58.96
50977;BME280;36992;48.200;12.418;2022-09-14T09:10:03;95871.81;;;22.65;58.63
50977;BME280;36992;48.200;12.418;2022-09-14T09:12:36;95865.13;;;22.73;58.21
50977;BME280;36992;48.200;12.418;2022-09-14T09:15:12;95871.81;;;22.80;58.02
50977;BME280;36992;48.200;12.418;2022-09-14T09:17:45;95868.66;;;22.88;57.42
50977;BME280;36992;48.200;12.418;2022-09-14T09:20:16;95878.84;;;22.95;57.57
50977;BME280;36992;48.200;12.418;2022-09-14T09:22:46;95869.44;;;23.00;57.91
50977;BME280;36992;48.200;12.418;2022-09-14T09:25:19;95881.97;;;23.08;58.18
50977;BME280;36992;48.200;12.418;2022-09-14T09:27:47;95879.59;;;23.10;57.60
50977;BME280;36992;48.200;12.418;2022-09-14T09:30:15;95884.31;;;23.17;57.23
50977;BME280;36992;48.200;12.418;2022-09-14T09:32:43;95884.66;;;23.23;57.15
50977;BME280;36992;48.200;12.418;2022-09-14T09:35:13;95881.94;;;23.34;56.82
50977;BME280;36992;48.200;12.418;2022-09-14T09:37:40;95883.50;;;23.35;56.96
50977;BME280;36992;48.200;12.418;2022-09-14T09:40:14;95886.19;;;23.49;56.66
50977;BME280;36992;48.200;12.418;2022-09-14T09:43:03;95880.28;;;23.62;56.58
50977;BME280;36992;48.200;12.418;2022-09-14T09:45:45;95881.41;;;23.68;56.30
50977;BME280;36992;48.200;12.418;2022-09-14T09:48:15;95888.06;;;23.78;56.44
50977;BME280;36992;48.200;12.418;2022-09-14T09:50:46;95883.69;;;23.88;56.02
50977;BME280;36992;48.200;12.418;2022-09-14T09:53:15;95886.41;;;23.91;56.00
50977;BME280;36992;48.200;12.418;2022-09-14T09:55:46;95881.25;;;24.04;55.85
50977;BME280;36992;48.200;12.418;2022-09-14T09:58:28;95869.03;;;24.13;55.29
50977;BME280;36992;48.200;12.418;2022-09-14T10:00:56;95865.06;;;24.17;55.51
50977;BME280;36992;48.200;12.418;2022-09-14T10:03:29;95850.44;;;24.31;55.17
50977;BME280;36992;48.200;12.418;2022-09-14T10:06:04;95846.03;;;24.45;55.19
50977;BME280;36992;48.200;12.418;2022-09-14T10:08:31;95840.06;;;24.54;54.75
50977;BME280;36992;48.200;12.418;2022-09-14T10:11:01;95840.34;;;24.67;54.82
50977;BME280;36992;48.200;12.418;2022-09-14T10:13:29;95837.84;;;24.79;52.21
50977;BME280;36992;48.200;12.418;2022-09-14T10:16:07;95844.00;;;24.98;51.85
50977;BME280;36992;48.200;12.418;2022-09-14T10:18:43;95845.03;;;25.15;50.98
50977;BME280;36992;48.200;12.418;2022-09-14T10:21:11;95850.03;;;25.28;49.33
50977;BME280;36992;48.200;12.418;2022-09-14T10:23:39;95825.81;;;25.43;48.75
50977;BME280;36992;48.200;12.418;2022-09-14T10:26:24;95833.09;;;25.61;48.58
50977;BME280;36992;48.200;12.418;2022-09-14T10:28:52;95829.09;;;25.69;47.82
50977;BME280;36992;48.200;12.418;2022-09-14T10:31:29;95817.44;;;25.85;48.71
50977;BME280;36992;48.200;12.418;2022-09-14T10:33:58;95823.25;;;25.91;48.15
50977;BME280;36992;48.200;12.418;2022-09-14T10:36:27;95805.03;;;25.97;46.89
50977;BME280;36992;48.200;12.418;2022-09-14T10:38:56;95805.78;;;26.01;46.70
50977;BME280;36992;48.200;12.418;2022-09-14T10:41:27;95796.25;;;26.06;46.28
50977;BME280;36992;48.200;12.418;2022-09-14T10:44:16;95794.47;;;26.19;47.56
50977;BME280;36992;48.200;12.418;2022-09-14T10:46:54;95797.22;;;26.19;46.66
50977;BME280;36992;48.200;12.418;2022-09-14T10:49:31;95787.31;;;26.22;46.81
50977;BME280;36992;48.200;12.418;2022-09-14T10:52:11;95794.75;;;26.29;47.15
50977;BME280;36992;48.200;12.418;2022-09-14T10:54:42;95779.16;;;26.42;46.25
50977;BME280;36992;48.200;12.418;2022-09-14T10:57:19;95786.69;;;26.38;46.20
50977;BME280;36992;48.200;12.418;2022-09-14T10:59:53;95774.47;;;26.39;45.09
50977;BME280;36992;48.200;12.418;2022-09-14T11:03:02;95777.13;;;26.46;45.85
50977;BME280;36992;48.200;12.418;2022-09-14T11:05:37;95770.41;;;26.47;45.22
50977;BME280;36992;48.200;12.418;2022-09-14T11:08:14;95769.47;;;26.54;45.64
50977;BME280;36992;48.200;12.418;2022-09-14T11:10:51;95764.63;;;26.62;45.32
50977;BME280;36992;48.200;12.418;2022-09-14T11:13:35;95752.53;;;26.76;46.30
50977;BME280;36992;48.200;12.418;2022-09-14T11:16:16;95752.81;;;26.82;45.27
50977;BME280;36992;48.200;12.418;2022-09-14T11:18:53;95762.16;;;26.88;45.25
50977;BME280;36992;48.200;12.418;2022-09-14T11:21:27;95759.28;;;26.95;44.76
50977;BME280;36992;48.200;12.418;2022-09-14T11:24:01;95752.38;;;27.07;44.73
50977;BME280;36992;48.200;12.418;2022-09-14T11:26:36;95755.75;;;27.15;44.10
50977;BME280;36992;48.200;12.418;2022-09-14T11:29:13;95752.00;;;27.25;44.29
50977;BME280;36992;48.200;12.418;2022-09-14T11:31:48;95746.81;;;27.27;43.00
50977;BME280;36992;48.200;12.418;2022-09-14T11:34:19;95742.78;;;27.32;43.08
50977;BME280;36992;48.200;12.418;2022-09-14T11:36:51;95762.41;;;27.38;43.53
50977;BME280;36992;48.200;12.418;2022-09-14T11:39:21;95742.97;;;27.41;42.87
50977;BME280;36992;48.200;12.418;2022-09-14T11:41:50;95740.28;;;27.38;42.22
50977;BME280;36992;48.200;12.418;2022-09-14T11:44:21;95743.34;;;27.43;43.36
50977;BME280;36992;48.200;12.418;2022-09-14T11:46:54;95730.19;;;27.47;43.01
50977;BME280;36992;48.200;12.418;2022-09-14T11:49:27;95733.75;;;27.48;43.13
50977;BME280;36992;48.200;12.418;2022-09-14T11:52:01;95726.94;;;27.53;43.18
50977;BME280;36992;48.200;12.418;2022-09-14T11:54:30;95728.84;;;27.56;42.74
50977;BME280;36992;48.200;12.418;2022-09-14T11:56:59;95719.97;;;27.65;42.80
50977;BME280;36992;48.200;12.418;2022-09-14T11:59:48;95724.16;;;27.73;43.78
50977;BME280;36992;48.200;12.418;2022-09-14T12:03:11;95731.41;;;27.83;42.56
50977;BME280;36992;48.200;12.418;2022-09-14T12:05:39;95725.19;;;27.79;41.65
50977;BME280;36992;48.200;12.418;2022-09-14T12:08:37;95743.00;;;27.95;42.27
50977;BME280;36992;48.200;12.418;2022-09-14T12:11:29;95722.31;;;27.99;42.83
50977;BME280;36992;48.200;12.418;2022-09-14T12:14:12;95732.13;;;28.04;42.18
50977;BME280;36992;48.200;12.418;2022-09-14T12:17:02;95730.03;;;28.08;42.34
50977;BME280;36992;48.200;12.418;2022-09-14T12:19:29;95720.69;;;28.02;40.99
50977;BME280;36992;48.200;12.418;2022-09-14T12:21:56;95718.97;;;28.08;41.75
50977;BME280;36992;48.200;12.418;2022-09-14T12:24:44;95722.75;;;28.14;40.62
50977;BME280;36992;48.200;12.418;2022-09-14T12:27:14;95717.50;;;28.20;41.14
50977;BME280;36992;48.200;12.418;2022-09-14T12:29:46;95715.94;;;28.19;41.38
50977;BME280;36992;48.200;12.418;2022-09-14T12:32:38;95725.22;;;28.29;41.24
50977;BME280;36992;48.200;12.418;2022-09-14T12:35:42;95697.34;;;28.36;41.76
50977;BME280;36992;48.200;12.418;2022-09-14T12:38:42;95700.81;;;28.40;42.01
50977;BME280;36992;48.200;12.418;2022-09-14T12:44:39;95706.34;;;28.40;40.44
50977;BME280;36992;48.200;12.418;2022-09-14T12:47:38;95696.28;;;28.47;40.94
50977;BME280;36992;48.200;12.418;2022-09-14T12:50:16;95703.22;;;28.38;40.34
50977;BME280;36992;48.200;12.418;2022-09-14T12:52:59;95703.13;;;28.42;40.61
50977;BME280;36992;48.200;12.418;2022-09-14T12:55:39;95702.34;;;28.41;41.33
50977;BME280;36992;48.200;12.418;2022-09-14T12:58:20;95707.91;;;28.41;41.35
50977;BME280;36992;48.200;12.418;2022-09-14T13:00:58;95711.09;;;28.40;41.08
50977;BME280;36992;48.200;12.418;2022-09-14T13:03:45;95712.66;;;28.41;40.86
50977;BME280;36992;48.200;12.418;2022-09-14T13:06:12;95712.75;;;28.37;40.72
50977;BME280;36992;48.200;12.418;2022-09-14T13:08:43;95711.19;;;28.36;40.86
50977;BME280;36992;48.200;12.418;2022-09-14T13:11:18;95712.75;;;28.37;40.85
50977;BME280;36992;48.200;12.418;2022-09-14T13:13:47;95719.16;;;28.34;40.23
50977;BME280;36992;48.200;12.418;2022-09-14T13:16:26;95709.53;;;28.39;40.90